createdAt,value
2023-05-15T11:47:25.327Z,18.31
2023-05-15T11:49:52.371Z,17.97
2023-05-15T11:52:19.224Z,18.47
2023-05-15T11:54:46.129Z,18.66
2023-05-15T11:57:12.872Z,18.45
2023-05-15T11:59:39.530Z,18.60
2023-05-15T12:02:06.564Z,18.64
2023-05-15T12:04:33.690Z,18.61
2023-05-15T12:07:02.903Z,18.15
2023-05-15T12:09:30.293Z,18.24
2023-05-15T12:11:56.961Z,18.55
2023-05-15T12:14:30.288Z,17.99
2023-05-15T12:17:03.907Z,17.76
2023-05-15T12:19:31.114Z,17.56
2023-05-15T12:21:58.052Z,17.78
2023-05-15T12:24:26.223Z,18.01
2023-05-15T12:33:14.413Z,18.58
2023-05-15T12:35:43.522Z,18.65
2023-05-15T12:38:14.529Z,18.70
2023-05-15T12:40:42.549Z,18.48
2023-05-15T12:43:10.022Z,18.48
2023-05-15T12:45:40.092Z,18.65
2023-05-15T12:48:07.597Z,19.03
2023-05-15T12:50:35.201Z,18.93
2023-05-15T12:53:03.990Z,19.01
2023-05-15T12:55:32.605Z,18.87
2023-05-15T12:58:01.650Z,19.08
2023-05-15T13:00:28.799Z,19.14
2023-05-15T13:02:56.415Z,19.00
2023-05-15T13:05:26.513Z,18.96
2023-05-15T13:07:53.918Z,19.16
2023-05-15T13:10:24.992Z,19.36
2023-05-15T13:12:53.079Z,19.33
2023-05-15T13:15:26.259Z,19.55
2023-05-15T13:17:56.016Z,19.91
2023-05-15T13:20:23.605Z,20.31
2023-05-15T13:22:50.886Z,20.66
2023-05-15T13:25:20.745Z,20.53
2023-05-15T13:27:47.697Z,20.27
2023-05-15T13:30:15.219Z,20.49
2023-05-15T13:32:42.715Z,20.68
2023-05-15T13:35:10.051Z,20.71
2023-05-15T13:37:37.206Z,20.87
2023-05-15T13:40:09.354Z,21.07
2023-05-15T13:42:37.289Z,21.48
2023-05-15T13:45:08.342Z,21.91
2023-05-15T13:47:36.534Z,21.99
2023-05-15T13:50:03.345Z,21.78
2023-05-15T13:52:30.938Z,22.06
2023-05-15T13:54:57.759Z,22.24
2023-05-15T13:57:25.148Z,22.37
2023-05-15T13:59:52.169Z,22.53
2023-05-15T14:02:20.320Z,22.74
2023-05-15T14:04:47.476Z,22.90
2023-05-15T14:07:14.316Z,22.63
2023-05-15T14:09:41.181Z,22.79
2023-05-15T14:12:09.256Z,22.88
2023-05-15T14:14:36.118Z,22.84
2023-05-15T14:17:03.041Z,22.92
2023-05-15T14:19:30.117Z,23.34
2023-05-15T14:21:57.323Z,23.14
2023-05-15T14:24:23.961Z,23.26
2023-05-15T14:26:50.707Z,23.36
2023-05-15T14:29:17.532Z,23.62
2023-05-15T14:31:44.539Z,23.41
2023-05-15T14:34:11.522Z,23.12
2023-05-15T14:36:38.571Z,23.31
2023-05-15T14:39:05.822Z,23.59
2023-05-15T14:41:32.971Z,23.18
2023-05-15T14:44:00.240Z,22.36
2023-05-15T14:46:27.503Z,22.73
2023-05-15T14:48:54.235Z,22.86
2023-05-15T14:51:21.259Z,23.10
2023-05-15T14:53:48.102Z,22.88
2023-05-15T14:56:16.002Z,22.98
2023-05-15T14:58:42.726Z,23.15
2023-05-15T15:01:09.467Z,23.14
2023-05-15T15:03:36.755Z,23.01
2023-05-15T15:06:03.887Z,23.13
2023-05-15T15:08:30.870Z,23.13
2023-05-15T15:10:57.583Z,23.20
2023-05-15T15:13:26.966Z,22.83
2023-05-15T15:15:53.715Z,23.05
2023-05-15T15:18:21.584Z,22.98
2023-05-15T15:20:48.583Z,23.38
2023-05-15T15:23:15.644Z,23.40
2023-05-15T15:25:42.474Z,23.36
2023-05-15T15:28:09.168Z,23.42
2023-05-15T15:30:35.871Z,23.40
2023-05-15T15:33:03.110Z,23.43
2023-05-15T15:35:30.292Z,23.74
2023-05-15T15:37:57.023Z,24.09
2023-05-15T15:40:24.195Z,24.06
2023-05-15T15:42:51.453Z,23.84
2023-05-15T15:45:18.055Z,24.00
2023-05-15T15:47:45.329Z,24.24
2023-05-15T15:50:12.140Z,24.37
2023-05-15T15:52:39.806Z,24.46
2023-05-15T15:55:07.757Z,24.58
2023-05-15T15:57:36.179Z,25.01
2023-05-15T16:00:04.756Z,25.10
2023-05-15T16:02:32.903Z,25.42
2023-05-15T16:05:00.059Z,25.85
2023-05-15T16:07:26.783Z,25.69
2023-05-15T16:10:04.293Z,26.10
2023-05-15T16:12:40.240Z,26.13
2023-05-15T16:15:20.963Z,26.45
2023-05-15T16:17:51.749Z,26.25
2023-05-15T16:20:18.377Z,26.34
2023-05-15T16:22:45.325Z,26.67
2023-05-15T16:25:12.050Z,26.83
2023-05-15T16:27:39.040Z,27.13
2023-05-15T16:30:06.656Z,27.39
2023-05-15T16:32:34.842Z,27.55
2023-05-15T16:35:01.989Z,27.70
2023-05-15T16:37:29.235Z,27.74
2023-05-15T16:39:56.076Z,28.04
2023-05-15T16:42:22.789Z,28.40
2023-05-15T16:44:49.496Z,28.64
2023-05-15T16:47:16.293Z,29.14
2023-05-15T16:49:44.588Z,29.49
2023-05-15T16:52:12.126Z,29.52
2023-05-15T16:54:41.262Z,30.01
2023-05-15T16:57:08.175Z,30.10
2023-05-15T16:59:35.121Z,30.28
2023-05-15T17:02:02.261Z,30.49
2023-05-15T17:04:32.708Z,30.69
2023-05-15T17:07:00.915Z,30.84
2023-05-15T17:09:28.438Z,30.90
2023-05-15T17:11:55.159Z,31.29
2023-05-15T17:14:22.515Z,31.64
2023-05-15T17:16:49.416Z,32.19
2023-05-15T17:19:17.532Z,32.32
2023-05-15T17:21:45.038Z,32.42
2023-05-15T17:24:12.240Z,32.58
2023-05-15T17:26:38.974Z,32.48
2023-05-15T17:29:05.700Z,32.27
2023-05-15T17:31:34.874Z,32.28
2023-05-15T17:34:02.906Z,32.07
2023-05-15T17:36:30.651Z,32.26
2023-05-15T17:38:57.528Z,31.95
2023-05-15T17:41:25.356Z,32.27
2023-05-15T17:43:52.403Z,32.25
2023-05-15T17:46:19.292Z,32.42
2023-05-15T17:48:46.172Z,32.43
2023-05-15T17:51:12.945Z,32.52
2023-05-15T17:53:39.776Z,32.27
2023-05-15T17:56:06.631Z,32.54
2023-05-15T17:58:33.463Z,32.71
2023-05-15T18:01:00.865Z,32.90
2023-05-15T18:03:27.776Z,33.11
2023-05-15T18:05:55.040Z,33.01
2023-05-15T18:08:21.847Z,33.09
2023-05-15T18:10:48.892Z,33.21
2023-05-15T18:13:16.458Z,33.34
2023-05-15T18:15:43.597Z,33.59
2023-05-15T18:18:10.613Z,33.76
2023-05-15T18:20:37.491Z,34.06
2023-05-15T18:23:04.507Z,34.20
2023-05-15T18:25:36.297Z,34.03
2023-05-15T18:28:04.001Z,34.41
2023-05-15T18:30:30.925Z,34.32
2023-05-15T18:32:57.868Z,34.43
2023-05-15T18:35:24.830Z,34.77
2023-05-15T18:37:51.836Z,35.05
2023-05-15T18:40:19.112Z,35.33
2023-05-15T18:42:46.137Z,35.73
2023-05-15T18:45:13.286Z,35.96
2023-05-15T18:47:40.162Z,36.24
2023-05-15T18:50:07.640Z,36.34
2023-05-15T18:52:34.635Z,36.33
2023-05-15T18:55:01.458Z,36.17
2023-05-15T18:57:28.521Z,36.12
2023-05-15T18:59:55.569Z,36.17
2023-05-15T19:02:24.532Z,36.32
2023-05-15T19:04:53.157Z,36.33
2023-05-15T19:07:20.145Z,36.06
2023-05-15T19:09:46.955Z,36.02
2023-05-15T19:12:13.779Z,36.18
2023-05-15T19:14:40.545Z,36.16
2023-05-15T19:17:07.592Z,36.12
2023-05-15T19:19:34.944Z,36.20
2023-05-15T19:22:02.375Z,36.16
2023-05-15T19:24:30.406Z,36.19
2023-05-15T19:26:58.828Z,36.35
2023-05-15T19:29:25.831Z,36.32
2023-05-15T19:31:52.761Z,36.32
2023-05-15T19:34:19.659Z,36.31
2023-05-15T19:36:47.026Z,36.44
2023-05-15T19:39:13.949Z,36.45
2023-05-15T19:41:41.015Z,36.47
2023-05-15T19:44:08.152Z,36.50
2023-05-15T19:46:35.430Z,36.47
2023-05-15T19:49:02.446Z,36.58
2023-05-15T19:51:29.317Z,36.64
2023-05-15T19:53:56.228Z,36.78
2023-05-15T19:56:24.863Z,36.89
2023-05-15T19:58:52.170Z,36.81
2023-05-15T20:01:19.053Z,36.65
2023-05-15T20:03:46.027Z,36.81
2023-05-15T20:06:13.102Z,36.93
2023-05-15T20:08:40.391Z,36.94
2023-05-15T20:11:07.297Z,37.01
2023-05-15T20:13:34.782Z,36.90
2023-05-15T20:16:06.325Z,36.97
2023-05-15T20:18:34.781Z,36.87
2023-05-15T20:21:02.690Z,36.68
2023-05-15T20:23:29.617Z,36.55
2023-05-15T20:25:56.361Z,36.59
2023-05-15T20:28:25.348Z,36.30
2023-05-15T20:30:52.275Z,36.36
2023-05-15T20:33:19.006Z,36.27
2023-05-15T20:35:46.554Z,36.21
2023-05-15T20:38:14.028Z,36.17
2023-05-15T20:48:39.174Z,36.11
2023-05-15T20:51:06.138Z,36.18
2023-05-15T20:53:33.382Z,36.45
2023-05-15T20:56:00.325Z,36.39
2023-05-15T20:58:27.170Z,36.48
2023-05-15T21:00:53.974Z,36.64
2023-05-15T21:03:21.245Z,36.88
2023-05-15T21:05:48.932Z,37.05
2023-05-15T21:08:15.668Z,37.04
2023-05-15T21:10:42.519Z,37.25
2023-05-15T21:13:09.567Z,37.27
2023-05-15T21:15:36.940Z,37.39
2023-05-15T21:18:03.834Z,37.49
2023-05-15T21:20:32.955Z,37.60
2023-05-15T21:23:01.763Z,37.67
2023-05-15T21:25:28.575Z,37.84
2023-05-15T21:27:55.330Z,38.03
2023-05-15T21:30:22.158Z,38.20
2023-05-15T21:32:49.544Z,38.39
2023-05-15T21:35:16.765Z,38.43
2023-05-15T21:37:43.837Z,38.75
2023-05-15T21:40:11.885Z,38.80
2023-05-15T21:42:38.829Z,39.00
2023-05-15T21:45:07.081Z,39.24
2023-05-15T21:47:35.191Z,39.42
2023-05-15T21:50:02.137Z,39.54
2023-05-15T21:52:29.194Z,39.64
2023-05-15T21:54:55.842Z,39.76
2023-05-15T21:57:23.020Z,40.02
2023-05-15T21:59:49.917Z,40.20
2023-05-15T22:02:16.845Z,40.26
2023-05-15T22:04:43.812Z,40.39
2023-05-15T22:07:10.747Z,40.51
2023-05-15T22:09:37.500Z,40.71
2023-05-15T22:12:04.765Z,40.94
2023-05-15T22:14:31.771Z,40.95
2023-05-15T22:16:58.615Z,41.37
2023-05-15T22:19:33.128Z,41.44
2023-05-15T22:22:02.224Z,41.75
2023-05-15T22:24:29.267Z,41.90
2023-05-15T22:26:56.020Z,42.07
2023-05-15T22:29:23.174Z,42.26
2023-05-15T22:31:50.048Z,42.40
2023-05-15T22:34:16.955Z,42.60
2023-05-15T22:36:44.608Z,42.71
2023-05-15T22:39:11.860Z,42.94
2023-05-15T22:41:38.817Z,43.06
2023-05-15T22:44:05.746Z,43.29
2023-05-15T22:46:32.716Z,43.45
2023-05-15T22:48:59.784Z,43.44
2023-05-15T22:51:26.790Z,43.66
2023-05-15T22:53:53.627Z,43.76
2023-05-15T22:56:20.821Z,43.88
2023-05-15T22:58:47.842Z,44.02
2023-05-15T23:01:14.943Z,44.07
2023-05-15T23:03:42.780Z,44.16
2023-05-15T23:06:09.885Z,44.37
2023-05-15T23:08:36.726Z,44.56
2023-05-15T23:11:03.801Z,44.72
2023-05-15T23:13:31.232Z,44.92
2023-05-15T23:15:58.067Z,44.99
2023-05-15T23:18:25.125Z,45.15
2023-05-15T23:20:52.009Z,45.30
2023-05-15T23:23:18.960Z,45.47
2023-05-15T23:25:45.750Z,45.69
2023-05-15T23:28:12.698Z,45.69
2023-05-15T23:30:39.539Z,45.85
2023-05-15T23:33:06.350Z,46.21
2023-05-15T23:35:33.601Z,46.23
2023-05-15T23:38:00.324Z,46.36
2023-05-15T23:40:27.309Z,46.49
2023-05-15T23:42:54.598Z,46.58
2023-05-15T23:45:21.310Z,46.55
2023-05-15T23:47:48.316Z,46.80
2023-05-15T23:50:15.618Z,46.68
2023-05-15T23:52:42.715Z,46.89
2023-05-15T23:55:10.328Z,46.93
2023-05-15T23:57:37.187Z,47.02
